LFLV 250730Z AUTO VRB01KT 9999 FEW043 13/11 Q1020

ElémentsDécodage
LFLV Station météo située sur l'aérodrome de VICHY Charmeil
250730Z émis le 25 du mois à 07h30 UTC
AUTO Bulletin édité par un automate
VRB01KT vent de direction variable, 01 noeuds
9999 visibilité horizontale supérieure à 10 Km
FEW043 nuages rares (1/8 à 2/8) à 4300 pieds
13/11 température 13°C, point de rosée 11°C
 soit une humidité relative de 88%
Q1020 la pression au niveau de la mer (QNH) est de 1020 hPa